createdAt,value
2022-09-28T00:13:43.666Z,91.0
2022-09-28T00:33:43.670Z,91.4
2022-09-28T00:53:43.705Z,91.8
2022-09-28T01:13:43.620Z,92.2
2022-09-28T01:33:43.645Z,92.3
2022-09-28T01:53:43.673Z,91.9
2022-09-28T02:13:43.593Z,90.8
2022-09-28T02:33:43.601Z,90.5
2022-09-28T02:53:43.629Z,90.0
2022-09-28T03:13:43.541Z,90.0
2022-09-28T03:33:43.566Z,90.2
2022-09-28T03:53:43.593Z,90.3
2022-09-28T04:13:43.513Z,90.4
2022-09-28T04:33:43.531Z,90.2
2022-09-28T04:53:43.552Z,90.0
2022-09-28T05:13:43.469Z,89.5
2022-09-28T05:33:43.570Z,89.9
2022-09-28T05:53:43.515Z,90.1
2022-09-28T06:13:43.438Z,89.7
2022-09-28T06:33:43.541Z,90.0
2022-09-28T06:53:43.485Z,90.3
2022-09-28T07:13:43.398Z,90.0
2022-09-28T07:33:43.420Z,91.0
2022-09-28T07:53:43.462Z,91.3
2022-09-28T08:13:43.365Z,90.9
2022-09-28T08:33:43.394Z,90.6
2022-09-28T08:53:43.407Z,90.7
2022-09-28T09:13:43.327Z,90.2
2022-09-28T09:33:43.348Z,90.4
2022-09-28T09:53:43.367Z,90.5
2022-09-28T10:13:43.290Z,90.9
2022-09-28T10:33:43.315Z,90.5
2022-09-28T10:53:43.338Z,90.1
2022-09-28T11:13:43.265Z,90.1
2022-09-28T11:33:43.296Z,89.7
2022-09-28T11:53:43.217Z,90.0
2022-09-28T12:13:43.247Z,89.9
2022-09-28T12:33:43.271Z,89.1
2022-09-28T12:53:43.203Z,88.9
2022-09-28T13:13:43.223Z,89.5
2022-09-28T13:33:43.146Z,88.7
2022-09-28T13:53:43.173Z,88.5
2022-09-28T14:13:43.105Z,88.4
2022-09-28T14:33:43.132Z,88.4
2022-09-28T14:53:43.158Z,87.6
2022-09-28T15:13:43.076Z,88.7
2022-09-28T15:33:43.107Z,89.0
2022-09-28T15:53:43.050Z,89.2
2022-09-28T16:13:43.058Z,89.6
2022-09-28T16:33:43.088Z,89.4
2022-09-28T16:53:43.008Z,89.5
2022-09-28T17:13:43.151Z,89.7
2022-09-28T17:33:43.106Z,90.4
2022-09-28T17:53:43.148Z,90.3
2022-09-28T18:13:43.139Z,90.1
2022-09-28T18:53:43.134Z,90.0
2022-09-28T19:13:43.042Z,89.9
2022-09-28T19:33:43.078Z,89.7
2022-09-28T19:53:42.948Z,89.6
2022-09-28T20:13:43.029Z,90.0
2022-09-28T20:33:43.057Z,90.1
2022-09-28T20:53:43.026Z,90.3
2022-09-28T21:13:43.003Z,90.3
2022-09-28T21:33:43.037Z,90.3
2022-09-28T21:53:42.972Z,90.2
2022-09-28T22:13:42.976Z,90.2
2022-09-28T22:33:42.865Z,90.0
2022-09-28T22:53:42.787Z,90.2
2022-09-28T23:13:42.851Z,90.2
2022-09-28T23:33:42.792Z,90.5
2022-09-28T23:53:42.879Z,90.5
